sensor_id;sensor_type;location;lat;lon;timestamp;temperature;humidity
17687;DHT22;8962;52.538;13.266;2022-12-07T00:00:01;3.00;99.90
17687;DHT22;8962;52.538;13.266;2022-12-07T00:02:31;3.00;99.90
17687;DHT22;8962;52.538;13.266;2022-12-07T00:04:58;3.00;99.90
17687;DHT22;8962;52.538;13.266;2022-12-07T00:07:26;3.00;99.90
17687;DHT22;8962;52.538;13.266;2022-12-07T00:09:53;3.00;99.90
17687;DHT22;8962;52.538;13.266;2022-12-07T00:12:20;2.90;99.90
17687;DHT22;8962;52.538;13.266;2022-12-07T00:14:49;2.90;99.90
17687;DHT22;8962;52.538;13.266;2022-12-07T00:17:17;2.90;99.90
17687;DHT22;8962;52.538;13.266;2022-12-07T00:19:45;2.90;99.90
17687;DHT22;8962;52.538;13.266;2022-12-07T00:22:12;2.90;99.90
17687;DHT22;8962;52.538;13.266;2022-12-07T00:24:39;2.90;99.90
17687;DHT22;8962;52.538;13.266;2022-12-07T00:27:06;2.80;99.90
17687;DHT22;8962;52.538;13.266;2022-12-07T00:29:33;2.80;99.90
17687;DHT22;8962;52.538;13.266;2022-12-07T00:32:02;2.80;99.90
17687;DHT22;8962;52.538;13.266;2022-12-07T00:34:29;2.80;99.90
17687;DHT22;8962;52.538;13.266;2022-12-07T00:36:58;2.70;99.90
17687;DHT22;8962;52.538;13.266;2022-12-07T00:39:25;2.70;99.90
17687;DHT22;8962;52.538;13.266;2022-12-07T00:41:52;2.60;99.90
17687;DHT22;8962;52.538;13.266;2022-12-07T00:44:21;2.60;99.90
17687;DHT22;8962;52.538;13.266;2022-12-07T00:46:48;2.50;99.90
17687;DHT22;8962;52.538;13.266;2022-12-07T00:49:17;2.40;99.90
17687;DHT22;8962;52.538;13.266;2022-12-07T00:51:45;2.40;99.90
17687;DHT22;8962;52.538;13.266;2022-12-07T00:54:16;2.50;99.90
17687;DHT22;8962;52.538;13.266;2022-12-07T00:56:43;2.40;99.90
17687;DHT22;8962;52.538;13.266;2022-12-07T00:59:13;2.50;99.90
17687;DHT22;8962;52.538;13.266;2022-12-07T01:01:41;2.50;99.90
17687;DHT22;8962;52.538;13.266;2022-12-07T01:04:09;2.50;99.90
17687;DHT22;8962;52.538;13.266;2022-12-07T01:06:37;2.50;99.90
17687;DHT22;8962;52.538;13.266;2022-12-07T01:09:07;2.50;99.90
17687;DHT22;8962;52.538;13.266;2022-12-07T01:11:34;2.40;99.90
17687;DHT22;8962;52.538;13.266;2022-12-07T01:14:03;2.50;99.90
17687;DHT22;8962;52.538;13.266;2022-12-07T01:16:32;2.50;99.90
17687;DHT22;8962;52.538;13.266;2022-12-07T01:19:00;2.50;99.90
17687;DHT22;8962;52.538;13.266;2022-12-07T01:21:32;2.50;99.90
17687;DHT22;8962;52.538;13.266;2022-12-07T01:24:04;2.50;99.90
17687;DHT22;8962;52.538;13.266;2022-12-07T01:26:31;2.50;99.90
17687;DHT22;8962;52.538;13.266;2022-12-07T01:29:01;2.50;99.90
17687;DHT22;8962;52.538;13.266;2022-12-07T01:31:30;2.60;99.90
17687;DHT22;8962;52.538;13.266;2022-12-07T01:33:58;2.60;99.90
17687;DHT22;8962;52.538;13.266;2022-12-07T01:36:27;2.60;99.90
17687;DHT22;8962;52.538;13.266;2022-12-07T01:38:56;2.70;99.90
17687;DHT22;8962;52.538;13.266;2022-12-07T01:41:29;2.70;99.90
17687;DHT22;8962;52.538;13.266;2022-12-07T01:44:16;2.60;99.90
17687;DHT22;8962;52.538;13.266;2022-12-07T01:46:46;2.60;99.90
17687;DHT22;8962;52.538;13.266;2022-12-07T01:49:18;2.60;99.90
17687;DHT22;8962;52.538;13.266;2022-12-07T01:51:49;2.60;99.90
17687;DHT22;8962;52.538;13.266;2022-12-07T01:54:20;2.60;99.90
17687;DHT22;8962;52.538;13.266;2022-12-07T01:56:54;2.60;99.90
17687;DHT22;8962;52.538;13.266;2022-12-07T01:59:26;2.60;99.90
17687;DHT22;8962;52.538;13.266;2022-12-07T02:01:54;2.60;99.90
17687;DHT22;8962;52.538;13.266;2022-12-07T02:04:22;2.60;99.90
17687;DHT22;8962;52.538;13.266;2022-12-07T02:06:50;2.60;99.90
17687;DHT22;8962;52.538;13.266;2022-12-07T02:09:18;2.60;99.90
17687;DHT22;8962;52.538;13.266;2022-12-07T02:11:45;2.40;99.90
17687;DHT22;8962;52.538;13.266;2022-12-07T02:14:16;2.40;99.90
17687;DHT22;8962;52.538;13.266;2022-12-07T02:16:53;2.40;99.90
17687;DHT22;8962;52.538;13.266;2022-12-07T02:22:47;2.30;99.90
17687;DHT22;8962;52.538;13.266;2022-12-07T02:25:23;2.20;99.90
17687;DHT22;8962;52.538;13.266;2022-12-07T02:28:00;2.20;99.90
17687;DHT22;8962;52.538;13.266;2022-12-07T02:30:32;2.20;99.90
17687;DHT22;8962;52.538;13.266;2022-12-07T02:33:04;2.20;99.90
17687;DHT22;8962;52.538;13.266;2022-12-07T02:35:35;2.20;99.90
17687;DHT22;8962;52.538;13.266;2022-12-07T02:38:12;2.20;99.90
17687;DHT22;8962;52.538;13.266;2022-12-07T02:40:44;2.20;99.90
17687;DHT22;8962;52.538;13.266;2022-12-07T02:43:16;2.20;99.90
17687;DHT22;8962;52.538;13.266;2022-12-07T02:45:50;2.20;99.90
17687;DHT22;8962;52.538;13.266;2022-12-07T02:48:19;2.20;99.90
17687;DHT22;8962;52.538;13.266;2022-12-07T02:50:48;2.20;99.90
17687;DHT22;8962;52.538;13.266;2022-12-07T02:53:32;2.10;99.90
17687;DHT22;8962;52.538;13.266;2022-12-07T02:56:04;2.20;99.90
17687;DHT22;8962;52.538;13.266;2022-12-07T02:58:43;2.20;99.90
17687;DHT22;8962;52.538;13.266;2022-12-07T03:01:25;2.20;99.90
17687;DHT22;8962;52.538;13.266;2022-12-07T03:04:05;2.20;99.90
17687;DHT22;8962;52.538;13.266;2022-12-07T03:06:38;2.10;99.90
17687;DHT22;8962;52.538;13.266;2022-12-07T03:09:14;2.10;99.90
17687;DHT22;8962;52.538;13.266;2022-12-07T03:11:47;2.20;99.90
17687;DHT22;8962;52.538;13.266;2022-12-07T03:14:19;2.20;99.90
17687;DHT22;8962;52.538;13.266;2022-12-07T03:16:53;2.30;99.90
17687;DHT22;8962;52.538;13.266;2022-12-07T03:19:23;2.30;99.90
17687;DHT22;8962;52.538;13.266;2022-12-07T03:21:53;2.30;99.90
17687;DHT22;8962;52.538;13.266;2022-12-07T03:24:26;2.30;99.90
17687;DHT22;8962;52.538;13.266;2022-12-07T03:26:59;2.40;99.90
17687;DHT22;8962;52.538;13.266;2022-12-07T03:29:31;2.50;99.90
17687;DHT22;8962;52.538;13.266;2022-12-07T03:32:05;2.50;99.90
17687;DHT22;8962;52.538;13.266;2022-12-07T03:34:36;2.50;99.90
17687;DHT22;8962;52.538;13.266;2022-12-07T03:37:08;2.50;99.90
17687;DHT22;8962;52.538;13.266;2022-12-07T03:39:40;2.40;99.90
17687;DHT22;8962;52.538;13.266;2022-12-07T03:42:10;2.40;99.90
17687;DHT22;8962;52.538;13.266;2022-12-07T03:44:37;2.50;99.90
17687;DHT22;8962;52.538;13.266;2022-12-07T03:47:11;2.50;99.90
17687;DHT22;8962;52.538;13.266;2022-12-07T03:49:44;2.60;99.90
17687;DHT22;8962;52.538;13.266;2022-12-07T03:52:18;2.60;99.90
17687;DHT22;8962;52.538;13.266;2022-12-07T03:54:52;2.60;99.90
17687;DHT22;8962;52.538;13.266;2022-12-07T03:57:21;2.60;99.90
17687;DHT22;8962;52.538;13.266;2022-12-07T03:59:50;2.60;99.90
17687;DHT22;8962;52.538;13.266;2022-12-07T04:02:19;2.60;99.90
17687;DHT22;8962;52.538;13.266;2022-12-07T04:04:47;2.60;99.90
17687;DHT22;8962;52.538;13.266;2022-12-07T04:07:14;2.60;99.90
17687;DHT22;8962;52.538;13.266;2022-12-07T04:09:43;2.50;99.90
17687;DHT22;8962;52.538;13.266;2022-12-07T04:12:10;2.60;99.90
17687;DHT22;8962;52.538;13.266;2022-12-07T04:14:37;2.50;99.90
17687;DHT22;8962;52.538;13.266;2022-12-07T04:17:05;2.60;99.90
17687;DHT22;8962;52.538;13.266;2022-12-07T04:19:34;2.60;99.90
17687;DHT22;8962;52.538;13.266;2022-12-07T04:22:02;2.60;99.90
17687;DHT22;8962;52.538;13.266;2022-12-07T04:24:30;2.60;99.90
17687;DHT22;8962;52.538;13.266;2022-12-07T04:26:57;2.60;99.90
17687;DHT22;8962;52.538;13.266;2022-12-07T04:29:25;2.60;99.90
17687;DHT22;8962;52.538;13.266;2022-12-07T04:31:52;2.60;99.90
17687;DHT22;8962;52.538;13.266;2022-12-07T04:34:20;2.60;99.90
17687;DHT22;8962;52.538;13.266;2022-12-07T04:36:49;2.60;99.90
17687;DHT22;8962;52.538;13.266;2022-12-07T04:39:19;2.60;99.90
17687;DHT22;8962;52.538;13.266;2022-12-07T04:41:47;2.60;99.90
17687;DHT22;8962;52.538;13.266;2022-12-07T04:44:15;2.60;99.90
17687;DHT22;8962;52.538;13.266;2022-12-07T04:46:43;2.60;99.90
17687;DHT22;8962;52.538;13.266;2022-12-07T04:49:12;2.60;99.90
17687;DHT22;8962;52.538;13.266;2022-12-07T04:51:40;2.60;99.90
17687;DHT22;8962;52.538;13.266;2022-12-07T04:54:08;2.60;99.90
17687;DHT22;8962;52.538;13.266;2022-12-07T04:56:36;2.70;99.90
17687;DHT22;8962;52.538;13.266;2022-12-07T04:59:03;2.70;99.90
17687;DHT22;8962;52.538;13.266;2022-12-07T05:01:31;2.70;99.90
17687;DHT22;8962;52.538;13.266;2022-12-07T05:03:58;2.70;99.90
17687;DHT22;8962;52.538;13.266;2022-12-07T05:06:26;2.70;99.90
17687;DHT22;8962;52.538;13.266;2022-12-07T05:08:53;2.70;99.90
17687;DHT22;8962;52.538;13.266;2022-12-07T05:11:21;2.80;99.90
17687;DHT22;8962;52.538;13.266;2022-12-07T05:14:10;2.80;99.90
17687;DHT22;8962;52.538;13.266;2022-12-07T05:16:38;2.80;99.90
17687;DHT22;8962;52.538;13.266;2022-12-07T05:19:05;2.80;99.90
17687;DHT22;8962;52.538;13.266;2022-12-07T05:21:33;2.80;99.90
17687;DHT22;8962;52.538;13.266;2022-12-07T05:24:00;2.90;99.90
17687;DHT22;8962;52.538;13.266;2022-12-07T05:26:29;2.80;99.90
17687;DHT22;8962;52.538;13.266;2022-12-07T05:28:57;2.80;99.90
17687;DHT22;8962;52.538;13.266;2022-12-07T05:31:26;2.90;99.90
17687;DHT22;8962;52.538;13.266;2022-12-07T05:33:54;2.90;99.90
17687;DHT22;8962;52.538;13.266;2022-12-07T05:36:21;3.00;99.90
17687;DHT22;8962;52.538;13.266;2022-12-07T05:38:49;2.90;99.90
17687;DHT22;8962;52.538;13.266;2022-12-07T05:41:18;3.00;99.90
17687;DHT22;8962;52.538;13.266;2022-12-07T05:44:05;3.10;99.90
17687;DHT22;8962;52.538;13.266;2022-12-07T05:46:32;3.10;99.90
17687;DHT22;8962;52.538;13.266;2022-12-07T05:49:00;3.10;99.90
17687;DHT22;8962;52.538;13.266;2022-12-07T05:51:28;3.20;99.90
17687;DHT22;8962;52.538;13.266;2022-12-07T05:53:55;3.20;99.90
17687;DHT22;8962;52.538;13.266;2022-12-07T05:56:22;3.30;99.90
17687;DHT22;8962;52.538;13.266;2022-12-07T05:58:49;3.30;99.90
17687;DHT22;8962;52.538;13.266;2022-12-07T06:01:36;3.30;99.90
17687;DHT22;8962;52.538;13.266;2022-12-07T06:04:03;3.30;99.90
17687;DHT22;8962;52.538;13.266;2022-12-07T06:06:30;3.30;99.90
17687;DHT22;8962;52.538;13.266;2022-12-07T06:08:59;3.30;99.90
17687;DHT22;8962;52.538;13.266;2022-12-07T06:11:26;3.40;99.90
17687;DHT22;8962;52.538;13.266;2022-12-07T06:14:11;3.40;99.90
17687;DHT22;8962;52.538;13.266;2022-12-07T06:16:40;3.40;99.90
17687;DHT22;8962;52.538;13.266;2022-12-07T06:19:07;3.40;99.90
17687;DHT22;8962;52.538;13.266;2022-12-07T06:21:35;3.40;99.90
17687;DHT22;8962;52.538;13.266;2022-12-07T06:24:04;3.40;99.90
17687;DHT22;8962;52.538;13.266;2022-12-07T06:26:31;3.40;99.90
17687;DHT22;8962;52.538;13.266;2022-12-07T06:28:59;3.40;99.90
17687;DHT22;8962;52.538;13.266;2022-12-07T06:31:26;3.40;99.90
17687;DHT22;8962;52.538;13.266;2022-12-07T06:33:58;3.50;99.90
17687;DHT22;8962;52.538;13.266;2022-12-07T06:36:25;3.50;99.90
17687;DHT22;8962;52.538;13.266;2022-12-07T06:38:53;3.50;99.90
17687;DHT22;8962;52.538;13.266;2022-12-07T06:41:20;3.60;99.90
17687;DHT22;8962;52.538;13.266;2022-12-07T06:43:47;3.60;99.90
17687;DHT22;8962;52.538;13.266;2022-12-07T06:46:16;3.60;99.90
17687;DHT22;8962;52.538;13.266;2022-12-07T06:48:43;3.60;99.90
17687;DHT22;8962;52.538;13.266;2022-12-07T06:51:12;3.70;99.90
17687;DHT22;8962;52.538;13.266;2022-12-07T06:53:39;3.70;99.90
17687;DHT22;8962;52.538;13.266;2022-12-07T06:56:06;3.70;99.90
17687;DHT22;8962;52.538;13.266;2022-12-07T06:58:34;3.70;99.90
17687;DHT22;8962;52.538;13.266;2022-12-07T07:01:01;3.80;99.90
17687;DHT22;8962;52.538;13.266;2022-12-07T07:03:28;3.80;99.90
17687;DHT22;8962;52.538;13.266;2022-12-07T07:05:55;3.80;99.90
17687;DHT22;8962;52.538;13.266;2022-12-07T07:08:24;3.80;99.90
17687;DHT22;8962;52.538;13.266;2022-12-07T07:10:51;3.90;99.90
17687;DHT22;8962;52.538;13.266;2022-12-07T07:13:18;3.90;99.90
17687;DHT22;8962;52.538;13.266;2022-12-07T07:15:47;3.90;99.90
17687;DHT22;8962;52.538;13.266;2022-12-07T07:18:14;4.00;99.90
17687;DHT22;8962;52.538;13.266;2022-12-07T07:20:41;4.00;99.90
17687;DHT22;8962;52.538;13.266;2022-12-07T07:23:08;4.00;99.90
17687;DHT22;8962;52.538;13.266;2022-12-07T07:25:37;4.10;99.90
17687;DHT22;8962;52.538;13.266;2022-12-07T07:28:04;4.00;99.90
17687;DHT22;8962;52.538;13.266;2022-12-07T07:30:33;4.10;99.90
17687;DHT22;8962;52.538;13.266;2022-12-07T07:33:01;4.00;99.90
17687;DHT22;8962;52.538;13.266;2022-12-07T07:35:32;4.00;99.90
17687;DHT22;8962;52.538;13.266;2022-12-07T07:38:00;3.90;99.90
17687;DHT22;8962;52.538;13.266;2022-12-07T07:40:28;3.90;99.90
17687;DHT22;8962;52.538;13.266;2022-12-07T07:42:58;3.90;99.90
17687;DHT22;8962;52.538;13.266;2022-12-07T07:45:26;3.90;99.90
17687;DHT22;8962;52.538;13.266;2022-12-07T07:47:53;3.90;99.90
17687;DHT22;8962;52.538;13.266;2022-12-07T07:50:22;3.90;99.90
17687;DHT22;8962;52.538;13.266;2022-12-07T07:52:49;4.00;99.90
17687;DHT22;8962;52.538;13.266;2022-12-07T07:55:17;4.00;99.90
17687;DHT22;8962;52.538;13.266;2022-12-07T07:57:44;4.00;99.90
17687;DHT22;8962;52.538;13.266;2022-12-07T08:00:15;4.00;99.90
17687;DHT22;8962;52.538;13.266;2022-12-07T08:02:43;4.00;99.90
17687;DHT22;8962;52.538;13.266;2022-12-07T08:05:13;4.00;99.90
17687;DHT22;8962;52.538;13.266;2022-12-07T08:07:40;4.10;99.90
17687;DHT22;8962;52.538;13.266;2022-12-07T08:10:10;4.10;99.90
17687;DHT22;8962;52.538;13.266;2022-12-07T08:12:41;4.10;99.90
17687;DHT22;8962;52.538;13.266;2022-12-07T08:15:25;4.10;99.90
17687;DHT22;8962;52.538;13.266;2022-12-07T08:17:53;4.10;99.90
17687;DHT22;8962;52.538;13.266;2022-12-07T08:20:21;4.20;99.90
17687;DHT22;8962;52.538;13.266;2022-12-07T08:22:48;4.20;99.90
17687;DHT22;8962;52.538;13.266;2022-12-07T08:25:15;4.20;99.90
17687;DHT22;8962;52.538;13.266;2022-12-07T08:27:43;4.30;99.90
17687;DHT22;8962;52.538;13.266;2022-12-07T08:30:11;4.30;99.90
17687;DHT22;8962;52.538;13.266;2022-12-07T08:32:39;4.30;99.90
17687;DHT22;8962;52.538;13.266;2022-12-07T08:35:07;4.30;99.90
17687;DHT22;8962;52.538;13.266;2022-12-07T08:37:35;4.30;99.90
17687;DHT22;8962;52.538;13.266;2022-12-07T08:40:03;4.30;99.90
17687;DHT22;8962;52.538;13.266;2022-12-07T08:42:31;4.30;99.90
17687;DHT22;8962;52.538;13.266;2022-12-07T08:45:05;4.30;99.90
17687;DHT22;8962;52.538;13.266;2022-12-07T08:47:32;4.30;99.90
17687;DHT22;8962;52.538;13.266;2022-12-07T08:50:04;4.30;99.90
17687;DHT22;8962;52.538;13.266;2022-12-07T08:52:35;4.30;99.90
17687;DHT22;8962;52.538;13.266;2022-12-07T08:55:04;4.30;99.90
17687;DHT22;8962;52.538;13.266;2022-12-07T08:57:34;4.30;99.90
17687;DHT22;8962;52.538;13.266;2022-12-07T09:00:02;4.30;99.90
17687;DHT22;8962;52.538;13.266;2022-12-07T09:02:30;4.30;99.90
17687;DHT22;8962;52.538;13.266;2022-12-07T09:04:58;4.30;99.90
17687;DHT22;8962;52.538;13.266;2022-12-07T09:07:26;4.30;99.90
17687;DHT22;8962;52.538;13.266;2022-12-07T09:09:54;4.30;99.90
17687;DHT22;8962;52.538;13.266;2022-12-07T09:12:21;4.20;99.90
17687;DHT22;8962;52.538;13.266;2022-12-07T09:14:48;4.20;99.90
17687;DHT22;8962;52.538;13.266;2022-12-07T09:17:15;4.10;99.90
17687;DHT22;8962;52.538;13.266;2022-12-07T09:19:44;4.10;99.90
17687;DHT22;8962;52.538;13.266;2022-12-07T09:22:11;4.10;99.90
17687;DHT22;8962;52.538;13.266;2022-12-07T09:24:39;4.10;99.90
17687;DHT22;8962;52.538;13.266;2022-12-07T09:27:06;4.10;99.90
17687;DHT22;8962;52.538;13.266;2022-12-07T09:29:33;4.00;99.90
17687;DHT22;8962;52.538;13.266;2022-12-07T09:32:00;4.00;99.90
17687;DHT22;8962;52.538;13.266;2022-12-07T09:34:30;4.00;99.90
17687;DHT22;8962;52.538;13.266;2022-12-07T09:36:57;4.00;99.90
17687;DHT22;8962;52.538;13.266;2022-12-07T09:39:25;4.00;99.90
17687;DHT22;8962;52.538;13.266;2022-12-07T09:41:54;4.00;99.90
17687;DHT22;8962;52.538;13.266;2022-12-07T09:44:26;4.00;99.90
17687;DHT22;8962;52.538;13.266;2022-12-07T09:46:53;4.00;99.90
17687;DHT22;8962;52.538;13.266;2022-12-07T09:49:23;3.90;99.90
17687;DHT22;8962;52.538;13.266;2022-12-07T09:52:01;3.90;99.90
17687;DHT22;8962;52.538;13.266;2022-12-07T09:54:30;3.90;99.90
17687;DHT22;8962;52.538;13.266;2022-12-07T09:57:02;3.90;99.90
17687;DHT22;8962;52.538;13.266;2022-12-07T09:59:30;3.80;99.90
17687;DHT22;8962;52.538;13.266;2022-12-07T10:02:21;3.80;99.90
17687;DHT22;8962;52.538;13.266;2022-12-07T10:04:50;3.80;99.90
17687;DHT22;8962;52.538;13.266;2022-12-07T10:07:17;3.90;99.90
17687;DHT22;8962;52.538;13.266;2022-12-07T10:09:46;3.90;99.90
17687;DHT22;8962;52.538;13.266;2022-12-07T10:12:16;3.90;99.90
17687;DHT22;8962;52.538;13.266;2022-12-07T10:14:54;3.80;99.90
17687;DHT22;8962;52.538;13.266;2022-12-07T10:17:34;3.70;99.90
17687;DHT22;8962;52.538;13.266;2022-12-07T10:20:22;3.70;99.90
17687;DHT22;8962;52.538;13.266;2022-12-07T10:23:00;3.80;99.90
17687;DHT22;8962;52.538;13.266;2022-12-07T10:25:31;3.90;99.90
17687;DHT22;8962;52.538;13.266;2022-12-07T10:28:13;3.90;99.90
17687;DHT22;8962;52.538;13.266;2022-12-07T10:30:49;3.90;99.90
17687;DHT22;8962;52.538;13.266;2022-12-07T10:33:36;3.80;99.90
17687;DHT22;8962;52.538;13.266;2022-12-07T10:36:26;3.90;99.90
17687;DHT22;8962;52.538;13.266;2022-12-07T10:39:00;4.00;99.90
17687;DHT22;8962;52.538;13.266;2022-12-07T10:41:30;3.90;99.90
17687;DHT22;8962;52.538;13.266;2022-12-07T10:44:00;4.00;99.90
17687;DHT22;8962;52.538;13.266;2022-12-07T10:46:57;4.00;99.90
17687;DHT22;8962;52.538;13.266;2022-12-07T10:52:59;4.10;99.90
17687;DHT22;8962;52.538;13.266;2022-12-07T10:55:40;4.20;99.90
17687;DHT22;8962;52.538;13.266;2022-12-07T11:01:08;4.30;99.90
17687;DHT22;8962;52.538;13.266;2022-12-07T11:03:51;4.30;99.90
17687;DHT22;8962;52.538;13.266;2022-12-07T11:06:27;4.30;99.90
17687;DHT22;8962;52.538;13.266;2022-12-07T11:09:06;4.30;99.90
17687;DHT22;8962;52.538;13.266;2022-12-07T11:11:47;4.30;99.90
17687;DHT22;8962;52.538;13.266;2022-12-07T11:14:23;4.30;99.90
17687;DHT22;8962;52.538;13.266;2022-12-07T11:16:56;4.30;99.90
17687;DHT22;8962;52.538;13.266;2022-12-07T11:19:46;4.30;99.90
17687;DHT22;8962;52.538;13.266;2022-12-07T11:22:22;4.30;99.90
17687;DHT22;8962;52.538;13.266;2022-12-07T11:24:57;4.30;99.90
17687;DHT22;8962;52.538;13.266;2022-12-07T11:27:36;4.40;99.90
17687;DHT22;8962;52.538;13.266;2022-12-07T11:30:13;4.50;99.90
17687;DHT22;8962;52.538;13.266;2022-12-07T11:32:59;4.50;99.90
17687;DHT22;8962;52.538;13.266;2022-12-07T11:35:36;4.50;99.90
17687;DHT22;8962;52.538;13.266;2022-12-07T11:38:11;4.50;99.90
17687;DHT22;8962;52.538;13.266;2022-12-07T11:40:40;4.60;99.90
17687;DHT22;8962;52.538;13.266;2022-12-07T11:43:17;4.60;99.90
17687;DHT22;8962;52.538;13.266;2022-12-07T11:45:50;4.60;99.90
17687;DHT22;8962;52.538;13.266;2022-12-07T11:48:25;4.60;99.90
17687;DHT22;8962;52.538;13.266;2022-12-07T11:50:59;4.60;99.90
17687;DHT22;8962;52.538;13.266;2022-12-07T11:53:32;4.70;99.90
17687;DHT22;8962;52.538;13.266;2022-12-07T11:56:06;4.70;99.90
17687;DHT22;8962;52.538;13.266;2022-12-07T11:58:44;4.70;99.90
17687;DHT22;8962;52.538;13.266;2022-12-07T12:01:22;4.70;99.90
17687;DHT22;8962;52.538;13.266;2022-12-07T12:03:56;4.70;99.90
17687;DHT22;8962;52.538;13.266;2022-12-07T12:06:25;4.80;99.90
17687;DHT22;8962;52.538;13.266;2022-12-07T12:08:55;4.80;99.90
17687;DHT22;8962;52.538;13.266;2022-12-07T12:11:38;4.80;99.90
17687;DHT22;8962;52.538;13.266;2022-12-07T12:20:26;4.80;99.90
17687;DHT22;8962;52.538;13.266;2022-12-07T12:23:00;4.80;99.90
17687;DHT22;8962;52.538;13.266;2022-12-07T12:25:37;4.80;99.90
17687;DHT22;8962;52.538;13.266;2022-12-07T12:28:05;4.90;99.90
17687;DHT22;8962;52.538;13.266;2022-12-07T12:30:35;4.90;99.90
17687;DHT22;8962;52.538;13.266;2022-12-07T12:33:05;4.90;99.90
17687;DHT22;8962;52.538;13.266;2022-12-07T12:35:36;4.90;99.90
17687;DHT22;8962;52.538;13.266;2022-12-07T12:38:31;4.90;99.90
17687;DHT22;8962;52.538;13.266;2022-12-07T12:41:01;4.90;99.90
17687;DHT22;8962;52.538;13.266;2022-12-07T12:46:48;4.80;99.90
17687;DHT22;8962;52.538;13.266;2022-12-07T12:52:53;4.80;99.90
17687;DHT22;8962;52.538;13.266;2022-12-07T12:58:47;4.80;99.90
17687;DHT22;8962;52.538;13.266;2022-12-07T13:01:44;4.90;99.90
17687;DHT22;8962;52.538;13.266;2022-12-07T13:04:22;5.00;99.90
17687;DHT22;8962;52.538;13.266;2022-12-07T13:06:50;5.00;99.90
17687;DHT22;8962;52.538;13.266;2022-12-07T13:09:24;5.00;99.90
17687;DHT22;8962;52.538;13.266;2022-12-07T13:11:58;5.00;99.90
17687;DHT22;8962;52.538;13.266;2022-12-07T13:14:52;5.00;99.90
17687;DHT22;8962;52.538;13.266;2022-12-07T13:17:55;5.00;99.90
17687;DHT22;8962;52.538;13.266;2022-12-07T13:20:48;5.10;99.90
17687;DHT22;8962;52.538;13.266;2022-12-07T13:23:18;5.10;99.90
17687;DHT22;8962;52.538;13.266;2022-12-07T13:25:54;5.00;99.90
17687;DHT22;8962;52.538;13.266;2022-12-07T13:28:23;5.10;99.90
17687;DHT22;8962;52.538;13.266;2022-12-07T13:31:11;5.00;99.90
17687;DHT22;8962;52.538;13.266;2022-12-07T13:33:41;5.00;99.90
17687;DHT22;8962;52.538;13.266;2022-12-07T13:36:17;5.00;99.90
17687;DHT22;8962;52.538;13.266;2022-12-07T13:38:53;5.00;99.90
17687;DHT22;8962;52.538;13.266;2022-12-07T13:41:24;5.00;99.90
17687;DHT22;8962;52.538;13.266;2022-12-07T13:43:59;5.00;99.90
17687;DHT22;8962;52.538;13.266;2022-12-07T13:46:35;4.90;99.90
17687;DHT22;8962;52.538;13.266;2022-12-07T13:49:18;4.90;99.90
17687;DHT22;8962;52.538;13.266;2022-12-07T13:51:47;4.90;99.90
17687;DHT22;8962;52.538;13.266;2022-12-07T13:54:15;4.90;99.90
17687;DHT22;8962;52.538;13.266;2022-12-07T13:56:46;4.90;99.90
17687;DHT22;8962;52.538;13.266;2022-12-07T13:59:16;4.90;99.90
17687;DHT22;8962;52.538;13.266;2022-12-07T14:01:45;4.90;99.90
17687;DHT22;8962;52.538;13.266;2022-12-07T14:04:19;4.90;99.90
17687;DHT22;8962;52.538;13.266;2022-12-07T14:06:50;4.90;99.90
17687;DHT22;8962;52.538;13.266;2022-12-07T14:09:19;4.90;99.90
17687;DHT22;8962;52.538;13.266;2022-12-07T14:11:51;4.90;99.90
17687;DHT22;8962;52.538;13.266;2022-12-07T14:14:20;4.80;99.90
17687;DHT22;8962;52.538;13.266;2022-12-07T14:17:00;4.80;99.90
17687;DHT22;8962;52.538;13.266;2022-12-07T14:19:45;4.90;99.90
17687;DHT22;8962;52.538;13.266;2022-12-07T14:22:29;4.80;99.90
17687;DHT22;8962;52.538;13.266;2022-12-07T14:25:16;4.80;99.90
17687;DHT22;8962;52.538;13.266;2022-12-07T14:28:09;4.70;99.90
17687;DHT22;8962;52.538;13.266;2022-12-07T14:30:50;4.70;99.90
17687;DHT22;8962;52.538;13.266;2022-12-07T14:33:18;4.60;99.90
17687;DHT22;8962;52.538;13.266;2022-12-07T14:35:47;4.60;99.90
17687;DHT22;8962;52.538;13.266;2022-12-07T14:38:15;4.50;99.90
17687;DHT22;8962;52.538;13.266;2022-12-07T14:40:44;4.50;99.90
17687;DHT22;8962;52.538;13.266;2022-12-07T14:43:14;4.40;99.90
17687;DHT22;8962;52.538;13.266;2022-12-07T14:45:42;4.40;99.90
17687;DHT22;8962;52.538;13.266;2022-12-07T14:48:11;4.30;99.90
17687;DHT22;8962;52.538;13.266;2022-12-07T14:50:43;4.30;99.90
17687;DHT22;8962;52.538;13.266;2022-12-07T14:53:14;4.30;99.90
17687;DHT22;8962;52.538;13.266;2022-12-07T14:55:43;4.30;99.90
17687;DHT22;8962;52.538;13.266;2022-12-07T14:58:15;4.20;99.90
17687;DHT22;8962;52.538;13.266;2022-12-07T15:03:59;4.20;99.90
17687;DHT22;8962;52.538;13.266;2022-12-07T15:06:27;4.10;99.90
17687;DHT22;8962;52.538;13.266;2022-12-07T15:08:55;4.10;99.90
17687;DHT22;8962;52.538;13.266;2022-12-07T15:11:22;4.00;99.90
17687;DHT22;8962;52.538;13.266;2022-12-07T15:13:51;4.00;99.90
17687;DHT22;8962;52.538;13.266;2022-12-07T15:16:39;4.00;99.90
17687;DHT22;8962;52.538;13.266;2022-12-07T15:19:11;4.00;99.90
17687;DHT22;8962;52.538;13.266;2022-12-07T15:21:39;3.90;99.90
17687;DHT22;8962;52.538;13.266;2022-12-07T15:24:08;3.90;99.90
17687;DHT22;8962;52.538;13.266;2022-12-07T15:26:35;4.00;99.90
17687;DHT22;8962;52.538;13.266;2022-12-07T15:29:04;4.00;99.90
17687;DHT22;8962;52.538;13.266;2022-12-07T15:31:33;4.00;99.90
17687;DHT22;8962;52.538;13.266;2022-12-07T15:34:02;4.00;99.90
17687;DHT22;8962;52.538;13.266;2022-12-07T15:36:32;4.00;99.90
17687;DHT22;8962;52.538;13.266;2022-12-07T15:38:59;4.10;99.90
17687;DHT22;8962;52.538;13.266;2022-12-07T15:41:27;4.10;99.90
17687;DHT22;8962;52.538;13.266;2022-12-07T15:43:54;4.10;99.90
17687;DHT22;8962;52.538;13.266;2022-12-07T15:46:40;4.10;99.90
17687;DHT22;8962;52.538;13.266;2022-12-07T15:49:11;4.00;99.90
17687;DHT22;8962;52.538;13.266;2022-12-07T15:51:41;4.00;99.90
17687;DHT22;8962;52.538;13.266;2022-12-07T15:54:13;4.10;99.90
17687;DHT22;8962;52.538;13.266;2022-12-07T15:56:40;4.10;99.90
17687;DHT22;8962;52.538;13.266;2022-12-07T15:59:07;4.10;99.90
17687;DHT22;8962;52.538;13.266;2022-12-07T16:01:34;4.10;99.90
17687;DHT22;8962;52.538;13.266;2022-12-07T16:04:04;4.00;99.90
17687;DHT22;8962;52.538;13.266;2022-12-07T16:06:31;4.00;99.90
17687;DHT22;8962;52.538;13.266;2022-12-07T16:08:58;4.00;99.90
17687;DHT22;8962;52.538;13.266;2022-12-07T16:11:26;3.90;99.90
17687;DHT22;8962;52.538;13.266;2022-12-07T16:13:53;3.90;99.90
17687;DHT22;8962;52.538;13.266;2022-12-07T16:16:21;3.70;99.90
17687;DHT22;8962;52.538;13.266;2022-12-07T16:18:49;3.70;99.90
17687;DHT22;8962;52.538;13.266;2022-12-07T16:21:21;3.60;99.90
17687;DHT22;8962;52.538;13.266;2022-12-07T16:23:48;3.50;99.90
17687;DHT22;8962;52.538;13.266;2022-12-07T16:26:17;3.60;99.90
17687;DHT22;8962;52.538;13.266;2022-12-07T16:28:45;3.60;99.90
17687;DHT22;8962;52.538;13.266;2022-12-07T16:31:14;3.50;99.90
17687;DHT22;8962;52.538;13.266;2022-12-07T16:33:44;3.50;99.90
17687;DHT22;8962;52.538;13.266;2022-12-07T16:36:13;3.50;99.90
17687;DHT22;8962;52.538;13.266;2022-12-07T16:38:43;3.40;99.90